createdAt,value
2022-12-18T00:00:05.753Z,0.60
2022-12-18T00:02:41.679Z,0.70
2022-12-18T00:05:09.703Z,0.60
2022-12-18T00:07:37.806Z,0.60
2022-12-18T00:10:06.336Z,0.60
2022-12-18T00:12:33.907Z,0.60
2022-12-18T00:15:01.517Z,0.60
2022-12-18T00:17:29.157Z,0.60
2022-12-18T00:19:56.811Z,0.50
2022-12-18T00:22:24.473Z,0.50
2022-12-18T00:24:52.385Z,0.50
2022-12-18T00:27:20.176Z,0.40
2022-12-18T00:29:49.508Z,0.40
2022-12-18T00:32:17.196Z,0.40
2022-12-18T00:34:44.913Z,0.40
2022-12-18T00:37:16.835Z,0.30
2022-12-18T00:39:49.474Z,0.30
2022-12-18T00:42:35.575Z,0.20
2022-12-18T00:45:07.718Z,0.20
2022-12-18T00:47:40.519Z,0.20
2022-12-18T00:50:09.042Z,0.10
2022-12-18T00:52:36.594Z,0.10
2022-12-18T00:55:06.610Z,0.00
2022-12-18T00:57:34.361Z,-0.10
2022-12-18T01:00:02.307Z,-0.10
2022-12-18T01:02:30.670Z,-0.20
2022-12-18T01:04:58.665Z,-0.20
2022-12-18T01:07:26.801Z,-0.30
2022-12-18T01:09:57.605Z,-0.30
2022-12-18T01:12:25.422Z,-0.40
2022-12-18T01:14:54.421Z,-0.40
2022-12-18T01:17:23.109Z,-0.50
2022-12-18T01:19:50.889Z,-0.50
2022-12-18T01:22:18.718Z,-0.50
2022-12-18T01:24:46.446Z,-0.50
2022-12-18T01:27:14.280Z,-0.60
2022-12-18T02:28:00.030Z,-1.00
2022-12-18T02:30:32.991Z,-1.00
2022-12-18T02:33:03.308Z,-1.00
2022-12-18T02:35:32.276Z,-1.00
2022-12-18T02:38:02.760Z,-1.00
2022-12-18T02:40:32.483Z,-1.00
2022-12-18T02:43:11.735Z,-1.00
2022-12-18T02:46:13.834Z,-1.00
2022-12-18T02:48:42.160Z,-1.00
2022-12-18T02:51:30.229Z,-1.00
2022-12-18T02:54:09.995Z,-1.00
2022-12-18T02:56:52.195Z,-1.00
2022-12-18T02:59:31.086Z,-0.90
2022-12-18T03:02:27.389Z,-0.90
2022-12-18T03:05:04.453Z,-0.90
2022-12-18T03:07:40.402Z,-0.90
2022-12-18T03:10:17.709Z,-0.90
2022-12-18T03:13:18.282Z,-0.90
2022-12-18T03:15:49.842Z,-0.90
2022-12-18T03:18:29.676Z,-0.90
2022-12-18T03:21:01.533Z,-0.90
2022-12-18T03:23:35.678Z,-0.80
2022-12-18T03:26:11.204Z,-0.80
2022-12-18T03:28:52.328Z,-0.80
2022-12-18T03:31:28.745Z,-0.80
2022-12-18T03:34:01.165Z,-0.80
2022-12-18T03:36:38.454Z,-0.80
2022-12-18T03:39:06.416Z,-0.80
2022-12-18T03:41:56.623Z,-0.70
2022-12-18T03:44:39.940Z,-0.70
2022-12-18T03:47:15.174Z,-0.70
2022-12-18T03:50:15.937Z,-0.70
2022-12-18T03:53:00.846Z,-0.70
2022-12-18T03:55:34.431Z,-0.70
2022-12-18T03:58:06.928Z,-0.70
2022-12-18T04:00:50.356Z,-0.70
2022-12-18T04:03:25.425Z,-0.70
2022-12-18T04:05:59.601Z,-0.70
2022-12-18T04:08:28.938Z,-0.70
2022-12-18T04:11:05.096Z,-0.70
2022-12-18T04:13:37.668Z,-0.90
2022-12-18T04:16:10.465Z,-0.70
2022-12-18T04:18:41.865Z,-0.70
2022-12-18T04:21:11.000Z,-0.70
2022-12-18T04:23:39.344Z,-0.80
2022-12-18T04:26:08.041Z,-0.70
2022-12-18T04:28:54.527Z,-0.70
2022-12-18T04:31:22.902Z,-0.70
2022-12-18T04:33:51.431Z,-0.70
2022-12-18T04:36:19.204Z,-0.70
2022-12-18T04:38:48.358Z,-0.70
2022-12-18T04:41:19.288Z,-0.70
2022-12-18T04:43:49.442Z,-0.60
2022-12-18T04:46:17.475Z,-0.70
2022-12-18T04:48:47.807Z,-0.60
2022-12-18T04:51:15.834Z,-0.60
2022-12-18T04:53:43.766Z,-0.60
2022-12-18T04:56:14.789Z,-0.70
2022-12-18T04:58:43.690Z,-0.60
2022-12-18T05:01:13.182Z,-0.60
2022-12-18T05:03:41.463Z,-0.60
2022-12-18T05:06:09.437Z,-0.60
2022-12-18T05:08:39.769Z,-0.60
2022-12-18T05:11:13.254Z,-0.60
2022-12-18T05:13:41.338Z,-0.60
2022-12-18T05:16:09.929Z,-0.60
2022-12-18T05:18:38.137Z,-0.60
2022-12-18T05:21:06.316Z,-0.60
2022-12-18T05:23:33.919Z,-0.60
2022-12-18T05:26:05.573Z,-0.60
2022-12-18T05:28:35.389Z,-0.70
2022-12-18T05:31:04.247Z,-0.70
2022-12-18T05:33:34.462Z,-0.70
2022-12-18T05:36:04.583Z,-0.70
2022-12-18T05:38:34.285Z,-0.70
2022-12-18T05:41:01.789Z,-0.70
2022-12-18T05:43:29.875Z,-0.70
2022-12-18T05:45:58.521Z,-0.60
2022-12-18T05:48:26.353Z,-0.60
2022-12-18T05:50:54.086Z,-0.60
2022-12-18T05:53:22.160Z,-0.50
2022-12-18T05:55:49.881Z,-0.50
2022-12-18T05:58:17.742Z,-0.40
2022-12-18T06:00:46.692Z,-0.50
2022-12-18T06:03:15.002Z,-0.30
2022-12-18T06:05:44.873Z,-0.30
2022-12-18T06:08:14.133Z,-0.30
2022-12-18T06:10:42.501Z,-0.20
2022-12-18T06:13:10.481Z,-0.30
2022-12-18T06:15:38.994Z,-0.20
2022-12-18T06:18:07.175Z,-0.20
2022-12-18T06:20:37.517Z,-0.20
2022-12-18T06:23:05.313Z,-0.20
2022-12-18T06:25:34.230Z,-0.20
2022-12-18T06:28:01.911Z,-0.20
2022-12-18T06:30:30.166Z,-0.10
2022-12-18T06:32:59.848Z,-0.10
2022-12-18T06:35:27.458Z,-0.10
2022-12-18T06:37:56.578Z,-0.10
2022-12-18T06:40:27.845Z,-0.10
2022-12-18T06:43:04.987Z,-0.10
2022-12-18T06:45:41.585Z,-0.10
2022-12-18T06:48:09.710Z,-0.10
2022-12-18T06:50:42.831Z,0.00
2022-12-18T06:53:19.708Z,0.00
2022-12-18T06:55:47.619Z,0.00
2022-12-18T06:58:15.283Z,-0.10
2022-12-18T07:00:43.092Z,0.00
2022-12-18T07:03:14.559Z,0.00
2022-12-18T07:05:42.331Z,0.00
2022-12-18T07:08:10.034Z,0.00
2022-12-18T07:10:48.209Z,-0.10
2022-12-18T07:13:18.236Z,-0.10
2022-12-18T07:15:46.518Z,-0.10
2022-12-18T07:18:14.244Z,-0.10
2022-12-18T07:20:42.373Z,-0.10
2022-12-18T07:23:10.329Z,0.00
2022-12-18T07:25:38.210Z,-0.10
2022-12-18T07:28:06.269Z,0.00
2022-12-18T07:30:34.445Z,0.00
2022-12-18T07:33:02.471Z,0.00
2022-12-18T07:35:30.262Z,0.00
2022-12-18T07:37:58.223Z,0.00
2022-12-18T07:40:25.888Z,0.00
2022-12-18T07:42:53.628Z,0.00
2022-12-18T07:45:21.289Z,0.00
2022-12-18T07:47:50.754Z,0.00
2022-12-18T07:50:18.682Z,0.00
2022-12-18T07:52:46.432Z,0.00
2022-12-18T07:55:14.476Z,0.00
2022-12-18T07:57:50.762Z,0.00
2022-12-18T08:00:19.915Z,0.00
2022-12-18T08:02:49.703Z,0.00
2022-12-18T08:05:17.963Z,0.00
2022-12-18T08:07:46.096Z,0.00
2022-12-18T08:10:14.359Z,-0.10
2022-12-18T08:12:42.234Z,0.00
2022-12-18T08:15:10.442Z,0.00
2022-12-18T08:17:38.313Z,0.00
2022-12-18T08:20:06.178Z,0.00
2022-12-18T08:22:36.608Z,0.00
2022-12-18T08:25:04.937Z,0.10
2022-12-18T08:27:33.062Z,0.00
2022-12-18T08:30:00.920Z,0.00
2022-12-18T08:32:29.499Z,0.10
2022-12-18T08:34:57.380Z,0.10
2022-12-18T08:37:25.365Z,0.10
2022-12-18T08:39:53.135Z,0.10
2022-12-18T08:42:39.826Z,0.10
2022-12-18T08:45:08.271Z,0.10
2022-12-18T08:47:35.871Z,0.10
2022-12-18T08:50:04.351Z,0.10
2022-12-18T08:52:33.409Z,0.00
2022-12-18T08:55:01.330Z,0.10
2022-12-18T08:57:29.323Z,0.10
2022-12-18T09:00:02.574Z,0.10
2022-12-18T09:02:30.540Z,0.00
2022-12-18T09:04:58.203Z,0.10
2022-12-18T09:07:29.425Z,0.10
2022-12-18T09:09:58.025Z,0.10
2022-12-18T09:12:26.406Z,0.00
2022-12-18T09:14:54.031Z,0.10
2022-12-18T09:17:35.046Z,0.10
2022-12-18T09:20:02.980Z,0.10
2022-12-18T09:22:30.726Z,0.10
2022-12-18T09:24:58.373Z,0.10
2022-12-18T09:27:26.106Z,0.10
2022-12-18T09:29:54.082Z,0.20
2022-12-18T09:32:22.730Z,0.20
2022-12-18T09:34:50.483Z,0.20
2022-12-18T09:37:18.517Z,0.20
2022-12-18T09:39:46.213Z,0.20
2022-12-18T09:42:22.376Z,0.30
2022-12-18T09:44:54.425Z,0.30
2022-12-18T09:47:41.618Z,0.30
2022-12-18T09:50:32.521Z,0.40
2022-12-18T09:53:07.582Z,0.50
2022-12-18T09:55:40.741Z,0.50
2022-12-18T09:58:21.010Z,0.50
2022-12-18T10:00:48.624Z,0.50
2022-12-18T10:03:17.103Z,0.50
2022-12-18T10:06:04.157Z,0.60
2022-12-18T10:08:53.667Z,0.60
2022-12-18T10:12:05.971Z,0.60
2022-12-18T10:14:43.490Z,0.60
2022-12-18T10:17:25.526Z,0.50
2022-12-18T10:20:05.718Z,0.50
2022-12-18T10:22:41.195Z,0.50
2022-12-18T10:25:20.950Z,0.50
2022-12-18T10:28:05.846Z,0.50
2022-12-18T10:30:36.677Z,0.60
2022-12-18T10:33:04.563Z,0.60
2022-12-18T10:35:32.520Z,0.60
2022-12-18T10:38:01.629Z,0.60
2022-12-18T10:40:29.886Z,0.60
2022-12-18T10:43:13.830Z,0.70
2022-12-18T10:45:42.824Z,0.70
2022-12-18T10:48:22.104Z,0.70
2022-12-18T10:53:42.920Z,0.80
2022-12-18T10:56:13.757Z,0.80
2022-12-18T10:58:41.718Z,0.90
2022-12-18T11:01:18.828Z,0.90
2022-12-18T11:04:02.435Z,0.90
2022-12-18T11:06:30.923Z,0.90
2022-12-18T11:08:59.856Z,1.00
2022-12-18T11:11:32.358Z,1.00
2022-12-18T11:14:06.570Z,1.00
2022-12-18T11:17:24.483Z,1.20
2022-12-18T11:19:42.410Z,1.20
2022-12-18T11:22:22.826Z,1.20
2022-12-18T11:25:31.239Z,1.30
2022-12-18T11:28:04.265Z,1.40
2022-12-18T11:30:37.100Z,1.40
2022-12-18T11:33:24.013Z,1.40
2022-12-18T11:35:59.210Z,1.40
2022-12-18T11:38:38.905Z,1.40
2022-12-18T11:41:47.248Z,1.40
2022-12-18T11:44:29.003Z,1.40
2022-12-18T11:47:02.762Z,1.40
2022-12-18T11:49:37.744Z,1.50
2022-12-18T11:52:30.376Z,1.40
2022-12-18T11:55:02.354Z,1.40
2022-12-18T11:58:08.423Z,1.40
2022-12-18T12:00:44.406Z,1.40
2022-12-18T12:03:19.733Z,1.40
2022-12-18T12:06:04.519Z,1.40
2022-12-18T12:08:59.527Z,1.40
2022-12-18T12:11:33.187Z,1.40
2022-12-18T12:14:03.969Z,1.40
2022-12-18T12:16:55.651Z,1.40
2022-12-18T12:20:03.383Z,1.40
2022-12-18T12:22:40.745Z,1.40
2022-12-18T12:25:19.780Z,1.50
2022-12-18T12:27:59.948Z,1.40
2022-12-18T12:30:42.688Z,1.40
2022-12-18T12:33:28.982Z,1.40
2022-12-18T12:36:27.077Z,1.40
2022-12-18T12:39:02.284Z,1.40
2022-12-18T12:41:52.345Z,1.40
2022-12-18T12:44:35.706Z,1.40
2022-12-18T12:47:16.312Z,1.40
2022-12-18T12:49:49.285Z,1.40
2022-12-18T12:52:34.163Z,1.40
2022-12-18T12:55:07.978Z,1.30
2022-12-18T12:57:44.284Z,1.40
2022-12-18T13:00:16.944Z,1.30
2022-12-18T13:02:52.006Z,1.30
2022-12-18T13:05:42.645Z,1.30
2022-12-18T13:08:13.374Z,1.40
2022-12-18T13:10:43.747Z,1.40
2022-12-18T13:13:47.075Z,1.30
2022-12-18T13:16:07.602Z,1.30
2022-12-18T13:18:35.618Z,1.40
2022-12-18T13:21:05.621Z,1.40
2022-12-18T13:23:38.846Z,1.30
2022-12-18T13:26:23.220Z,1.40
2022-12-18T13:28:55.644Z,1.30
2022-12-18T13:31:41.770Z,1.30
2022-12-18T13:34:28.561Z,1.30
2022-12-18T13:37:19.816Z,1.30
2022-12-18T13:39:50.495Z,1.30
2022-12-18T13:42:42.676Z,1.30
2022-12-18T13:45:38.310Z,1.30
2022-12-18T13:48:20.267Z,1.30
2022-12-18T13:51:17.708Z,1.30
2022-12-18T13:54:25.471Z,1.30
2022-12-18T13:56:53.037Z,1.30
2022-12-18T13:59:26.443Z,1.30
2022-12-18T14:02:25.340Z,1.30
2022-12-18T14:04:53.986Z,1.30
2022-12-18T14:07:33.090Z,1.30
2022-12-18T14:10:44.418Z,1.30
2022-12-18T14:13:08.169Z,1.40
2022-12-18T14:15:47.135Z,1.30
2022-12-18T14:18:39.880Z,1.40
2022-12-18T14:21:16.695Z,1.40
2022-12-18T14:23:45.387Z,1.40
2022-12-18T14:26:30.099Z,1.40
2022-12-18T14:29:19.126Z,1.40
2022-12-18T14:31:47.849Z,1.40
2022-12-18T14:34:20.386Z,1.40
2022-12-18T14:36:56.321Z,1.40
2022-12-18T14:39:26.479Z,1.40
2022-12-18T14:41:57.805Z,1.40
2022-12-18T14:44:28.590Z,1.40
2022-12-18T14:47:02.471Z,1.50
2022-12-18T14:49:37.785Z,1.50
2022-12-18T14:52:18.680Z,1.60
2022-12-18T14:54:48.672Z,2.40
2022-12-18T14:57:25.906Z,1.50
2022-12-18T14:59:56.692Z,1.60
2022-12-18T15:02:29.843Z,1.60
2022-12-18T15:05:15.300Z,1.70
2022-12-18T15:07:46.643Z,1.70
2022-12-18T15:10:34.481Z,1.70
2022-12-18T15:13:04.047Z,1.70
2022-12-18T15:15:38.021Z,1.70
2022-12-18T15:18:18.060Z,1.70
2022-12-18T15:21:00.987Z,1.80
2022-12-18T15:23:34.252Z,1.70
2022-12-18T15:26:06.524Z,1.80
2022-12-18T15:28:51.189Z,1.80
2022-12-18T15:31:18.822Z,1.80
2022-12-18T15:34:00.110Z,1.90
2022-12-18T15:36:28.660Z,1.80
2022-12-18T15:39:04.653Z,2.00
2022-12-18T15:41:36.242Z,1.90
2022-12-18T15:44:22.229Z,2.00
2022-12-18T15:46:53.720Z,2.10
2022-12-18T15:49:22.925Z,2.10
2022-12-18T15:51:59.030Z,2.20
2022-12-18T15:54:50.360Z,2.20
2022-12-18T15:57:28.514Z,2.20
2022-12-18T16:00:01.274Z,2.30
2022-12-18T16:02:29.999Z,2.30
2022-12-18T16:05:03.312Z,2.40
2022-12-18T16:07:31.141Z,2.40
2022-12-18T16:10:02.708Z,2.50
2022-12-18T16:12:32.401Z,2.60
2022-12-18T16:15:01.024Z,2.50
2022-12-18T16:17:30.233Z,2.50
2022-12-18T16:20:01.643Z,2.60
2022-12-18T16:22:30.663Z,2.60
2022-12-18T16:24:59.069Z,2.60
2022-12-18T16:27:27.435Z,2.70
2022-12-18T16:29:55.478Z,2.70
2022-12-18T16:32:26.619Z,2.70
2022-12-18T16:35:01.305Z,2.70
2022-12-18T16:37:29.729Z,2.70
2022-12-18T16:39:57.283Z,2.80
2022-12-18T16:42:25.497Z,2.80
2022-12-18T16:44:54.552Z,3.40
2022-12-18T16:47:23.344Z,2.90
2022-12-18T16:50:02.266Z,2.90
2022-12-18T16:52:32.902Z,2.90
2022-12-18T16:55:00.970Z,3.20
2022-12-18T16:57:29.209Z,3.00
2022-12-18T17:00:04.636Z,3.10
2022-12-18T17:02:33.751Z,3.10
2022-12-18T17:05:01.742Z,3.10
2022-12-18T17:07:32.541Z,3.10
2022-12-18T17:10:00.207Z,3.20
2022-12-18T17:12:28.188Z,3.10
2022-12-18T17:14:56.385Z,3.20
2022-12-18T17:17:24.369Z,3.20
2022-12-18T17:19:53.006Z,3.20
2022-12-18T17:22:21.544Z,3.20
2022-12-18T17:24:49.426Z,3.20
2022-12-18T17:27:17.182Z,3.30
2022-12-18T17:29:48.203Z,3.30
2022-12-18T17:32:17.944Z,3.30
2022-12-18T17:34:52.075Z,3.30
2022-12-18T17:37:20.172Z,3.40
2022-12-18T17:39:47.775Z,3.40
2022-12-18T17:42:16.013Z,3.40
2022-12-18T17:44:45.070Z,3.40
2022-12-18T17:47:13.836Z,3.50
2022-12-18T17:49:42.036Z,3.50
2022-12-18T17:52:10.327Z,3.50
2022-12-18T17:54:39.932Z,3.50
2022-12-18T17:57:07.757Z,3.60
2022-12-18T17:59:35.545Z,3.60
2022-12-18T18:02:03.398Z,3.60
2022-12-18T18:04:31.148Z,3.60
2022-12-18T18:06:58.909Z,3.60
2022-12-18T18:09:26.677Z,3.70
2022-12-18T18:12:13.185Z,4.60
2022-12-18T18:14:41.058Z,3.80
2022-12-18T18:17:08.934Z,3.80
2022-12-18T18:19:36.532Z,3.80
2022-12-18T18:22:04.382Z,3.90
2022-12-18T18:24:33.677Z,3.90
2022-12-18T18:27:03.681Z,3.90
2022-12-18T18:29:31.607Z,4.00
2022-12-18T18:31:59.705Z,4.00
2022-12-18T18:34:29.155Z,4.00
2022-12-18T18:36:59.741Z,4.10
2022-12-18T18:39:27.985Z,4.10
2022-12-18T18:41:55.874Z,4.10
2022-12-18T18:46:58.373Z,4.20
2022-12-18T18:49:27.853Z,4.30
2022-12-18T18:51:56.818Z,4.20
2022-12-18T18:54:25.786Z,4.30
2022-12-18T18:57:19.270Z,4.40
2022-12-18T18:59:41.689Z,4.30
2022-12-18T19:02:14.435Z,4.50
2022-12-18T19:04:45.863Z,4.50
2022-12-18T19:07:25.607Z,4.60
2022-12-18T19:10:04.808Z,4.70
2022-12-18T19:12:52.673Z,4.60
2022-12-18T19:15:22.532Z,4.70
2022-12-18T19:17:50.296Z,4.80
2022-12-18T19:20:19.241Z,4.80
2022-12-18T19:22:54.951Z,4.80
2022-12-18T19:25:38.528Z,4.80
2022-12-18T19:28:09.979Z,4.80
2022-12-18T19:30:58.960Z,4.80
2022-12-18T19:33:44.592Z,4.80
2022-12-18T19:36:12.757Z,4.90
2022-12-18T19:38:44.832Z,4.90
2022-12-18T19:41:14.038Z,4.80
2022-12-18T19:43:42.880Z,4.90
2022-12-18T19:46:14.677Z,4.80
2022-12-18T19:48:44.263Z,4.90
2022-12-18T19:51:23.048Z,4.90
2022-12-18T19:53:55.109Z,4.90
2022-12-18T19:56:27.847Z,5.00
2022-12-18T19:58:55.741Z,5.00
2022-12-18T20:01:25.185Z,5.00
2022-12-18T20:03:56.918Z,5.10
2022-12-18T20:06:47.498Z,5.20
2022-12-18T20:09:15.169Z,5.30
2022-12-18T20:11:43.042Z,5.40
2022-12-18T20:14:12.424Z,5.50
2022-12-18T20:16:40.991Z,5.60
2022-12-18T20:19:10.252Z,5.60
2022-12-18T20:21:38.395Z,5.80
2022-12-18T20:24:07.317Z,5.80
2022-12-18T20:26:34.948Z,5.90
2022-12-18T20:29:02.471Z,6.00
2022-12-18T20:31:30.557Z,6.00
2022-12-18T20:34:01.456Z,6.10
2022-12-18T20:36:38.829Z,6.10
2022-12-18T20:39:09.860Z,6.10
2022-12-18T20:41:39.447Z,6.10
2022-12-18T20:44:21.511Z,6.20
2022-12-18T20:47:04.512Z,6.30
2022-12-18T20:49:36.502Z,6.30
2022-12-18T20:52:06.492Z,6.30
2022-12-18T20:54:34.112Z,6.40
2022-12-18T20:57:02.099Z,6.50
2022-12-18T20:59:29.827Z,6.50
2022-12-18T21:01:57.577Z,6.50
2022-12-18T21:04:25.599Z,6.50
2022-12-18T21:06:56.751Z,6.50
2022-12-18T21:09:28.291Z,6.50
2022-12-18T21:12:34.959Z,6.60
2022-12-18T21:15:10.693Z,6.60
2022-12-18T21:17:38.292Z,6.60
2022-12-18T21:20:18.124Z,6.60
2022-12-18T21:22:49.174Z,6.60
2022-12-18T21:25:16.926Z,6.70
2022-12-18T21:27:44.577Z,6.80
2022-12-18T21:30:13.245Z,6.80
2022-12-18T21:32:41.228Z,6.80
2022-12-18T21:35:09.314Z,6.90
2022-12-18T21:37:37.449Z,6.90
2022-12-18T21:40:06.268Z,6.90
2022-12-18T21:42:52.548Z,6.90
2022-12-18T21:45:20.383Z,6.90
2022-12-18T21:47:48.062Z,7.00
2022-12-18T21:50:15.741Z,7.00
2022-12-18T21:52:43.263Z,7.00
2022-12-18T21:55:10.809Z,7.00
2022-12-18T21:57:39.417Z,7.00
2022-12-18T22:00:18.699Z,7.00
2022-12-18T22:02:48.582Z,7.00
2022-12-18T22:05:36.006Z,7.10
2022-12-18T22:08:03.597Z,7.10
2022-12-18T22:10:31.261Z,7.10
2022-12-18T22:12:58.801Z,7.10
2022-12-18T22:15:26.463Z,7.10
2022-12-18T22:17:59.845Z,7.20
2022-12-18T22:20:29.525Z,7.20
2022-12-18T22:22:58.345Z,7.30
2022-12-18T22:25:25.960Z,7.30
2022-12-18T22:28:12.141Z,7.40
2022-12-18T22:30:40.291Z,7.40
2022-12-18T22:33:07.881Z,7.50
2022-12-18T22:35:35.869Z,7.50
2022-12-18T22:38:03.517Z,7.50
2022-12-18T22:40:31.148Z,7.50
2022-12-18T22:42:58.765Z,7.50
2022-12-18T22:45:27.963Z,7.50
2022-12-18T22:47:56.135Z,7.50
2022-12-18T22:50:23.668Z,7.50
2022-12-18T22:52:51.188Z,7.40
2022-12-18T22:55:19.320Z,7.50
2022-12-18T22:57:49.175Z,7.50
2022-12-18T23:00:19.873Z,7.40
2022-12-18T23:02:59.702Z,7.50
2022-12-18T23:05:29.979Z,7.50
2022-12-18T23:07:58.115Z,7.50
2022-12-18T23:10:25.847Z,7.50
2022-12-18T23:12:53.475Z,7.50
2022-12-18T23:15:27.684Z,7.60
2022-12-18T23:17:57.997Z,7.60
2022-12-18T23:20:26.850Z,7.70
2022-12-18T23:22:54.375Z,7.70
2022-12-18T23:25:22.076Z,7.80
2022-12-18T23:27:49.647Z,7.90
2022-12-18T23:30:17.306Z,8.00
2022-12-18T23:32:44.984Z,8.00
2022-12-18T23:35:15.527Z,8.10
2022-12-18T23:38:00.492Z,8.20
2022-12-18T23:40:29.690Z,8.20
2022-12-18T23:42:58.645Z,8.30
2022-12-18T23:45:26.256Z,8.30
2022-12-18T23:47:53.927Z,8.30
2022-12-18T23:50:22.160Z,8.30
2022-12-18T23:53:04.639Z,8.30
2022-12-18T23:55:37.603Z,8.30
2022-12-18T23:58:05.252Z,8.40
